sensor_id;sensor_type;location;lat;lon;timestamp;pressure;altitude;pressure_sealevel;temperature;humidity
46876;BME280;32866;50.160;14.768;2023-02-17T00:00:05;100139.41;;;-1.10;100.00
46876;BME280;32866;50.160;14.768;2023-02-17T00:02:32;100086.72;;;-1.52;100.00
46876;BME280;32866;50.160;14.768;2023-02-17T00:04:58;100117.81;;;-1.26;100.00
46876;BME280;32866;50.160;14.768;2023-02-17T00:07:23;100135.94;;;-1.10;100.00
46876;BME280;32866;50.160;14.768;2023-02-17T00:09:49;100120.50;;;-1.14;100.00
46876;BME280;32866;50.160;14.768;2023-02-17T00:12:14;100118.72;;;-1.22;100.00
46876;BME280;32866;50.160;14.768;2023-02-17T00:14:39;100113.97;;;-1.13;100.00
46876;BME280;32866;50.160;14.768;2023-02-17T00:17:05;100109.75;;;-1.26;100.00
46876;BME280;32866;50.160;14.768;2023-02-17T00:19:31;100099.31;;;-1.15;100.00
46876;BME280;32866;50.160;14.768;2023-02-17T00:21:59;100105.28;;;-0.94;100.00
46876;BME280;32866;50.160;14.768;2023-02-17T00:24:27;100102.94;;;-0.95;100.00
46876;BME280;32866;50.160;14.768;2023-02-17T00:26:53;100058.84;;;-1.19;100.00
46876;BME280;32866;50.160;14.768;2023-02-17T00:29:19;100088.06;;;-1.05;100.00
46876;BME280;32866;50.160;14.768;2023-02-17T00:31:45;100094.19;;;-0.92;100.00
46876;BME280;32866;50.160;14.768;2023-02-17T00:34:11;100078.06;;;-1.04;100.00
46876;BME280;32866;50.160;14.768;2023-02-17T00:36:37;100077.47;;;-0.98;100.00
46876;BME280;32866;50.160;14.768;2023-02-17T00:39:03;100069.75;;;-0.99;100.00
46876;BME280;32866;50.160;14.768;2023-02-17T00:41:29;100075.72;;;-1.06;100.00
46876;BME280;32866;50.160;14.768;2023-02-17T00:43:55;100078.97;;;-1.00;100.00
46876;BME280;32866;50.160;14.768;2023-02-17T00:46:21;100070.50;;;-1.15;100.00
46876;BME280;32866;50.160;14.768;2023-02-17T00:48:47;100074.75;;;-1.14;100.00
46876;BME280;32866;50.160;14.768;2023-02-17T00:51:14;100047.97;;;-1.51;100.00
46876;BME280;32866;50.160;14.768;2023-02-17T00:53:39;100066.25;;;-1.16;100.00
46876;BME280;32866;50.160;14.768;2023-02-17T00:56:06;100073.28;;;-1.11;100.00
46876;BME280;32866;50.160;14.768;2023-02-17T00:58:32;100054.66;;;-1.44;100.00
46876;BME280;32866;50.160;14.768;2023-02-17T01:00:57;100070.81;;;-1.16;100.00
46876;BME280;32866;50.160;14.768;2023-02-17T01:03:23;100072.66;;;-1.20;100.00
46876;BME280;32866;50.160;14.768;2023-02-17T01:05:49;100069.97;;;-1.20;100.00
46876;BME280;32866;50.160;14.768;2023-02-17T01:08:15;100059.97;;;-1.20;100.00
46876;BME280;32866;50.160;14.768;2023-02-17T01:10:43;100058.19;;;-1.28;100.00
46876;BME280;32866;50.160;14.768;2023-02-17T01:13:10;100060.25;;;-1.37;100.00
46876;BME280;32866;50.160;14.768;2023-02-17T01:15:41;100068.09;;;-1.44;100.00
46876;BME280;32866;50.160;14.768;2023-02-17T01:18:06;100053.78;;;-1.48;100.00
46876;BME280;32866;50.160;14.768;2023-02-17T01:20:36;100042.63;;;-1.75;100.00
46876;BME280;32866;50.160;14.768;2023-02-17T01:23:03;100038.22;;;-1.55;100.00
46876;BME280;32866;50.160;14.768;2023-02-17T01:25:28;100044.97;;;-1.61;100.00
46876;BME280;32866;50.160;14.768;2023-02-17T01:27:53;99994.31;;;-1.88;100.00
46876;BME280;32866;50.160;14.768;2023-02-17T01:30:19;100035.69;;;-1.64;100.00
46876;BME280;32866;50.160;14.768;2023-02-17T01:32:44;100029.34;;;-1.84;100.00
46876;BME280;32866;50.160;14.768;2023-02-17T01:35:09;100041.94;;;-1.60;100.00
46876;BME280;32866;50.160;14.768;2023-02-17T01:37:35;99996.28;;;-1.84;100.00
46876;BME280;32866;50.160;14.768;2023-02-17T01:40:00;100000.75;;;-1.76;100.00
46876;BME280;32866;50.160;14.768;2023-02-17T01:42:26;100030.50;;;-1.57;100.00
46876;BME280;32866;50.160;14.768;2023-02-17T01:47:45;100019.13;;;-1.78;100.00
46876;BME280;32866;50.160;14.768;2023-02-17T01:50:13;100018.56;;;-1.72;100.00
46876;BME280;32866;50.160;14.768;2023-02-17T01:52:39;100025.50;;;-1.71;100.00
46876;BME280;32866;50.160;14.768;2023-02-17T01:55:07;99981.31;;;-1.85;100.00
46876;BME280;32866;50.160;14.768;2023-02-17T01:57:36;99951.00;;;-1.98;100.00
46876;BME280;32866;50.160;14.768;2023-02-17T02:00:05;99972.81;;;-1.88;100.00
46876;BME280;32866;50.160;14.768;2023-02-17T02:02:31;100013.63;;;-1.70;100.00
46876;BME280;32866;50.160;14.768;2023-02-17T02:04:57;100000.44;;;-1.87;100.00
46876;BME280;32866;50.160;14.768;2023-02-17T02:07:27;100009.41;;;-1.95;100.00
46876;BME280;32866;50.160;14.768;2023-02-17T02:09:56;100001.91;;;-1.90;100.00
46876;BME280;32866;50.160;14.768;2023-02-17T02:12:26;99979.31;;;-2.01;100.00
46876;BME280;32866;50.160;14.768;2023-02-17T02:14:53;99938.16;;;-2.17;100.00
46876;BME280;32866;50.160;14.768;2023-02-17T02:17:44;99974.13;;;-1.81;100.00
46876;BME280;32866;50.160;14.768;2023-02-17T02:26:03;99972.91;;;-1.96;100.00
46876;BME280;32866;50.160;14.768;2023-02-17T02:36:45;99965.03;;;-2.17;100.00
46876;BME280;32866;50.160;14.768;2023-02-17T02:39:17;99979.31;;;-2.01;100.00
46876;BME280;32866;50.160;14.768;2023-02-17T02:41:47;99947.34;;;-2.31;100.00
46876;BME280;32866;50.160;14.768;2023-02-17T02:44:17;99973.81;;;-2.05;100.00
46876;BME280;32866;50.160;14.768;2023-02-17T02:46:43;99944.06;;;-1.99;100.00
46876;BME280;32866;50.160;14.768;2023-02-17T02:49:09;99940.41;;;-2.19;100.00
46876;BME280;32866;50.160;14.768;2023-02-17T02:51:56;99954.44;;;-1.85;100.00
46876;BME280;32866;50.160;14.768;2023-02-17T02:54:32;99955.31;;;-1.81;100.00
46876;BME280;32866;50.160;14.768;2023-02-17T02:59:43;99945.22;;;-1.72;100.00
46876;BME280;32866;50.160;14.768;2023-02-17T03:02:44;99918.28;;;-1.88;100.00
46876;BME280;32866;50.160;14.768;2023-02-17T03:07:57;99911.25;;;-1.93;100.00
46876;BME280;32866;50.160;14.768;2023-02-17T03:10:24;99884.84;;;-2.03;100.00
46876;BME280;32866;50.160;14.768;2023-02-17T03:12:49;99884.41;;;-2.05;100.00
46876;BME280;32866;50.160;14.768;2023-02-17T03:15:23;99919.34;;;-1.77;100.00
46876;BME280;32866;50.160;14.768;2023-02-17T03:17:50;99916.56;;;-1.80;100.00
46876;BME280;32866;50.160;14.768;2023-02-17T03:20:16;99871.06;;;-2.01;100.00
46876;BME280;32866;50.160;14.768;2023-02-17T03:22:44;99910.91;;;-1.63;100.00
46876;BME280;32866;50.160;14.768;2023-02-17T03:25:10;99866.69;;;-1.94;100.00
46876;BME280;32866;50.160;14.768;2023-02-17T03:27:35;99875.28;;;-1.88;100.00
46876;BME280;32866;50.160;14.768;2023-02-17T03:30:01;99884.59;;;-1.98;100.00
46876;BME280;32866;50.160;14.768;2023-02-17T03:32:26;99883.34;;;-1.88;100.00
46876;BME280;32866;50.160;14.768;2023-02-17T03:34:51;99876.44;;;-2.01;100.00
46876;BME280;32866;50.160;14.768;2023-02-17T03:37:17;99878.78;;;-1.88;100.00
46876;BME280;32866;50.160;14.768;2023-02-17T03:39:43;99905.78;;;-1.68;100.00
46876;BME280;32866;50.160;14.768;2023-02-17T03:42:08;99885.84;;;-1.67;100.00
46876;BME280;32866;50.160;14.768;2023-02-17T03:44:34;99878.69;;;-1.47;100.00
46876;BME280;32866;50.160;14.768;2023-02-17T03:46:59;99883.22;;;-1.35;100.00
46876;BME280;32866;50.160;14.768;2023-02-17T03:49:24;99840.41;;;-1.72;100.00
46876;BME280;32866;50.160;14.768;2023-02-17T03:51:50;99886.59;;;-1.38;100.00
46876;BME280;32866;50.160;14.768;2023-02-17T03:54:15;99883.25;;;-1.47;100.00
46876;BME280;32866;50.160;14.768;2023-02-17T03:56:40;99881.81;;;-1.45;100.00
46876;BME280;32866;50.160;14.768;2023-02-17T03:59:07;99885.75;;;-1.26;100.00
46876;BME280;32866;50.160;14.768;2023-02-17T04:01:32;99881.03;;;-1.45;100.00
46876;BME280;32866;50.160;14.768;2023-02-17T04:03:57;99854.41;;;-1.51;100.00
46876;BME280;32866;50.160;14.768;2023-02-17T04:06:23;99878.34;;;-1.29;100.00
46876;BME280;32866;50.160;14.768;2023-02-17T04:08:48;99840.97;;;-1.51;100.00
46876;BME280;32866;50.160;14.768;2023-02-17T04:11:14;99869.09;;;-1.32;100.00
46876;BME280;32866;50.160;14.768;2023-02-17T04:13:39;99874.72;;;-1.37;100.00
46876;BME280;32866;50.160;14.768;2023-02-17T04:16:06;99887.03;;;-1.36;100.00
46876;BME280;32866;50.160;14.768;2023-02-17T04:18:33;99867.28;;;-1.72;100.00
46876;BME280;32866;50.160;14.768;2023-02-17T04:20:59;99872.38;;;-1.39;100.00
46876;BME280;32866;50.160;14.768;2023-02-17T04:23:24;99838.41;;;-1.59;100.00
46876;BME280;32866;50.160;14.768;2023-02-17T04:25:50;99876.25;;;-1.36;100.00
46876;BME280;32866;50.160;14.768;2023-02-17T04:28:16;99873.56;;;-1.36;100.00
46876;BME280;32866;50.160;14.768;2023-02-17T04:30:46;99857.66;;;-1.29;100.00
46876;BME280;32866;50.160;14.768;2023-02-17T04:33:12;99832.56;;;-1.49;100.00
46876;BME280;32866;50.160;14.768;2023-02-17T04:35:37;99825.44;;;-1.41;100.00
46876;BME280;32866;50.160;14.768;2023-02-17T04:38:03;99859.19;;;-1.28;100.00
46876;BME280;32866;50.160;14.768;2023-02-17T04:40:29;99855.19;;;-1.02;100.00
46876;BME280;32866;50.160;14.768;2023-02-17T04:42:54;99847.72;;;-1.09;100.00
46876;BME280;32866;50.160;14.768;2023-02-17T04:45:21;99842.00;;;-1.07;100.00
46876;BME280;32866;50.160;14.768;2023-02-17T04:47:46;99814.41;;;-1.36;100.00
46876;BME280;32866;50.160;14.768;2023-02-17T04:50:11;99848.97;;;-1.06;100.00
46876;BME280;32866;50.160;14.768;2023-02-17T04:52:37;99806.56;;;-1.29;100.00
46876;BME280;32866;50.160;14.768;2023-02-17T04:55:03;99846.97;;;-0.94;100.00
46876;BME280;32866;50.160;14.768;2023-02-17T04:57:29;99843.75;;;-0.99;100.00
46876;BME280;32866;50.160;14.768;2023-02-17T04:59:54;99847.66;;;-0.97;100.00
46876;BME280;32866;50.160;14.768;2023-02-17T05:02:20;99810.09;;;-1.25;100.00
46876;BME280;32866;50.160;14.768;2023-02-17T05:04:45;99850.53;;;-1.05;100.00
46876;BME280;32866;50.160;14.768;2023-02-17T05:07:11;99839.56;;;-1.13;100.00
46876;BME280;32866;50.160;14.768;2023-02-17T05:09:36;99802.63;;;-1.32;100.00
46876;BME280;32866;50.160;14.768;2023-02-17T05:12:02;99834.19;;;-1.13;100.00
46876;BME280;32866;50.160;14.768;2023-02-17T05:14:29;99816.78;;;-1.19;100.00
46876;BME280;32866;50.160;14.768;2023-02-17T05:16:54;99795.84;;;-1.41;100.00
46876;BME280;32866;50.160;14.768;2023-02-17T05:19:20;99820.25;;;-1.18;100.00
46876;BME280;32866;50.160;14.768;2023-02-17T05:21:45;99811.41;;;-1.19;100.00
46876;BME280;32866;50.160;14.768;2023-02-17T05:24:11;99833.66;;;-1.02;100.00
46876;BME280;32866;50.160;14.768;2023-02-17T05:26:36;99831.44;;;-1.16;100.00
46876;BME280;32866;50.160;14.768;2023-02-17T05:29:02;99842.88;;;-1.03;100.00
46876;BME280;32866;50.160;14.768;2023-02-17T05:31:27;99824.75;;;-1.06;100.00
46876;BME280;32866;50.160;14.768;2023-02-17T05:33:53;99835.66;;;-0.83;100.00
46876;BME280;32866;50.160;14.768;2023-02-17T05:36:18;99788.03;;;-1.15;100.00
46876;BME280;32866;50.160;14.768;2023-02-17T05:38:44;99813.44;;;-0.80;100.00
46876;BME280;32866;50.160;14.768;2023-02-17T05:41:13;99777.00;;;-1.09;100.00
46876;BME280;32866;50.160;14.768;2023-02-17T05:43:39;99786.03;;;-1.02;100.00
46876;BME280;32866;50.160;14.768;2023-02-17T05:46:04;99783.91;;;-0.77;100.00
46876;BME280;32866;50.160;14.768;2023-02-17T05:48:30;99793.72;;;-0.84;100.00
46876;BME280;32866;50.160;14.768;2023-02-17T05:50:55;99815.84;;;-0.75;100.00
46876;BME280;32866;50.160;14.768;2023-02-17T05:53:21;99803.09;;;-0.78;100.00
46876;BME280;32866;50.160;14.768;2023-02-17T05:55:46;99814.34;;;-0.72;100.00
46876;BME280;32866;50.160;14.768;2023-02-17T05:58:11;99777.22;;;-0.83;100.00
46876;BME280;32866;50.160;14.768;2023-02-17T06:00:37;99801.50;;;-0.63;100.00
46876;BME280;32866;50.160;14.768;2023-02-17T06:03:02;99818.66;;;-0.52;100.00
46876;BME280;32866;50.160;14.768;2023-02-17T06:05:27;99792.81;;;-0.72;100.00
46876;BME280;32866;50.160;14.768;2023-02-17T06:07:53;99816.22;;;-0.57;100.00
46876;BME280;32866;50.160;14.768;2023-02-17T06:10:18;99811.22;;;-0.59;100.00
46876;BME280;32866;50.160;14.768;2023-02-17T06:12:44;99798.44;;;-0.97;100.00
46876;BME280;32866;50.160;14.768;2023-02-17T06:15:09;99824.16;;;-0.64;100.00
46876;BME280;32866;50.160;14.768;2023-02-17T06:17:35;99819.19;;;-0.62;100.00
46876;BME280;32866;50.160;14.768;2023-02-17T06:20:00;99804.13;;;-0.83;100.00
46876;BME280;32866;50.160;14.768;2023-02-17T06:22:26;99822.34;;;-0.60;100.00
46876;BME280;32866;50.160;14.768;2023-02-17T06:24:51;99809.91;;;-0.65;100.00
46876;BME280;32866;50.160;14.768;2023-02-17T06:27:16;99804.94;;;-0.47;100.00
46876;BME280;32866;50.160;14.768;2023-02-17T06:29:42;99801.72;;;-0.52;100.00
46876;BME280;32866;50.160;14.768;2023-02-17T06:32:07;99786.34;;;-0.52;100.00
46876;BME280;32866;50.160;14.768;2023-02-17T06:34:33;99805.13;;;-0.36;100.00
46876;BME280;32866;50.160;14.768;2023-02-17T06:36:58;99798.47;;;-0.42;100.00
46876;BME280;32866;50.160;14.768;2023-02-17T06:39:23;99816.03;;;-0.29;100.00
46876;BME280;32866;50.160;14.768;2023-02-17T06:41:49;99810.72;;;-0.25;100.00
46876;BME280;32866;50.160;14.768;2023-02-17T06:44:14;99778.53;;;-0.57;100.00
46876;BME280;32866;50.160;14.768;2023-02-17T06:46:40;99775.59;;;-0.52;100.00
46876;BME280;32866;50.160;14.768;2023-02-17T06:49:05;99782.50;;;-0.51;100.00
46876;BME280;32866;50.160;14.768;2023-02-17T06:51:30;99776.28;;;-0.55;100.00
46876;BME280;32866;50.160;14.768;2023-02-17T06:53:56;99786.50;;;-0.45;100.00
46876;BME280;32866;50.160;14.768;2023-02-17T06:56:22;99805.97;;;-0.12;100.00
46876;BME280;32866;50.160;14.768;2023-02-17T06:58:47;99803.63;;;-0.14;100.00
46876;BME280;32866;50.160;14.768;2023-02-17T07:01:15;99802.88;;;-0.14;100.00
46876;BME280;32866;50.160;14.768;2023-02-17T07:03:42;99808.75;;;-0.09;100.00
46876;BME280;32866;50.160;14.768;2023-02-17T07:06:07;99783.53;;;-0.20;100.00
46876;BME280;32866;50.160;14.768;2023-02-17T07:08:32;99795.34;;;-0.05;100.00
46876;BME280;32866;50.160;14.768;2023-02-17T07:10:58;99789.47;;;0.09;100.00
46876;BME280;32866;50.160;14.768;2023-02-17T07:13:23;99774.53;;;0.15;100.00
46876;BME280;32866;50.160;14.768;2023-02-17T07:15:49;99811.78;;;0.29;100.00
46876;BME280;32866;50.160;14.768;2023-02-17T07:18:14;99790.81;;;-0.01;100.00
46876;BME280;32866;50.160;14.768;2023-02-17T07:20:39;99818.66;;;0.26;100.00
46876;BME280;32866;50.160;14.768;2023-02-17T07:23:05;99820.22;;;0.27;100.00
46876;BME280;32866;50.160;14.768;2023-02-17T07:25:30;99768.91;;;0.01;100.00
46876;BME280;32866;50.160;14.768;2023-02-17T07:27:56;99807.16;;;0.29;100.00
46876;BME280;32866;50.160;14.768;2023-02-17T07:30:21;99809.53;;;0.34;100.00
46876;BME280;32866;50.160;14.768;2023-02-17T07:32:46;99811.13;;;0.35;100.00
46876;BME280;32866;50.160;14.768;2023-02-17T07:35:12;99782.84;;;0.49;100.00
46876;BME280;32866;50.160;14.768;2023-02-17T07:37:37;99812.22;;;0.54;100.00
46876;BME280;32866;50.160;14.768;2023-02-17T07:40:03;99814.59;;;0.59;100.00
46876;BME280;32866;50.160;14.768;2023-02-17T07:42:29;99776.47;;;0.38;100.00
46876;BME280;32866;50.160;14.768;2023-02-17T07:44:54;99811.41;;;0.77;100.00
46876;BME280;32866;50.160;14.768;2023-02-17T07:47:19;99809.88;;;0.76;100.00
46876;BME280;32866;50.160;14.768;2023-02-17T07:49:45;99812.09;;;0.97;100.00
46876;BME280;32866;50.160;14.768;2023-02-17T07:52:10;99822.03;;;0.89;100.00
46876;BME280;32866;50.160;14.768;2023-02-17T07:54:36;99792.34;;;0.89;100.00
46876;BME280;32866;50.160;14.768;2023-02-17T07:57:01;99810.63;;;0.99;100.00
46876;BME280;32866;50.160;14.768;2023-02-17T07:59:26;99772.44;;;0.74;100.00
46876;BME280;32866;50.160;14.768;2023-02-17T08:01:52;99809.28;;;1.13;100.00
46876;BME280;32866;50.160;14.768;2023-02-17T08:04:17;99768.97;;;1.00;100.00
46876;BME280;32866;50.160;14.768;2023-02-17T08:06:43;99782.69;;;0.88;100.00
46876;BME280;32866;50.160;14.768;2023-02-17T08:09:09;99804.28;;;1.15;100.00
46876;BME280;32866;50.160;14.768;2023-02-17T08:11:53;99815.28;;;1.02;100.00
46876;BME280;32866;50.160;14.768;2023-02-17T08:14:37;99801.13;;;1.09;100.00
46876;BME280;32866;50.160;14.768;2023-02-17T08:17:04;99785.66;;;1.06;100.00
46876;BME280;32866;50.160;14.768;2023-02-17T08:19:29;99804.38;;;1.22;100.00
46876;BME280;32866;50.160;14.768;2023-02-17T08:21:55;99759.53;;;1.14;100.00
46876;BME280;32866;50.160;14.768;2023-02-17T08:24:20;99805.75;;;1.39;100.00
46876;BME280;32866;50.160;14.768;2023-02-17T08:26:47;99802.91;;;1.55;100.00
46876;BME280;32866;50.160;14.768;2023-02-17T08:29:12;99770.22;;;1.33;100.00
46876;BME280;32866;50.160;14.768;2023-02-17T08:31:38;99788.19;;;1.52;100.00
46876;BME280;32866;50.160;14.768;2023-02-17T08:34:05;99796.72;;;1.84;100.00
46876;BME280;32866;50.160;14.768;2023-02-17T08:36:31;99796.28;;;2.16;100.00
46876;BME280;32866;50.160;14.768;2023-02-17T08:38:57;99797.41;;;2.15;100.00
46876;BME280;32866;50.160;14.768;2023-02-17T08:41:32;99791.91;;;2.04;100.00
46876;BME280;32866;50.160;14.768;2023-02-17T08:43:59;99760.97;;;2.02;100.00
46876;BME280;32866;50.160;14.768;2023-02-17T08:46:28;99787.22;;;2.39;100.00
46876;BME280;32866;50.160;14.768;2023-02-17T08:48:54;99781.50;;;2.51;100.00
46876;BME280;32866;50.160;14.768;2023-02-17T08:51:21;99768.22;;;3.43;100.00
46876;BME280;32866;50.160;14.768;2023-02-17T08:53:49;99758.44;;;4.55;100.00
46876;BME280;32866;50.160;14.768;2023-02-17T08:56:15;99762.94;;;5.41;100.00
46876;BME280;32866;50.160;14.768;2023-02-17T08:58:40;99766.69;;;5.79;100.00
46876;BME280;32866;50.160;14.768;2023-02-17T09:01:05;99736.09;;;6.27;100.00
46876;BME280;32866;50.160;14.768;2023-02-17T09:03:35;99758.81;;;7.00;100.00
46876;BME280;32866;50.160;14.768;2023-02-17T09:06:02;99760.94;;;7.23;100.00
46876;BME280;32866;50.160;14.768;2023-02-17T09:08:27;99739.63;;;7.15;100.00
46876;BME280;32866;50.160;14.768;2023-02-17T09:10:53;99753.47;;;7.31;100.00
46876;BME280;32866;50.160;14.768;2023-02-17T09:13:18;99713.09;;;7.19;100.00
46876;BME280;32866;50.160;14.768;2023-02-17T09:15:44;99759.75;;;7.59;100.00
46876;BME280;32866;50.160;14.768;2023-02-17T09:18:09;99748.03;;;7.62;100.00
46876;BME280;32866;50.160;14.768;2023-02-17T09:20:36;99721.66;;;7.52;100.00
46876;BME280;32866;50.160;14.768;2023-02-17T09:23:02;99740.53;;;7.70;100.00
46876;BME280;32866;50.160;14.768;2023-02-17T09:25:27;99742.97;;;7.60;100.00
46876;BME280;32866;50.160;14.768;2023-02-17T09:27:52;99765.41;;;7.75;100.00
46876;BME280;32866;50.160;14.768;2023-02-17T09:30:18;99763.78;;;7.82;100.00
46876;BME280;32866;50.160;14.768;2023-02-17T09:32:43;99745.84;;;7.80;100.00
46876;BME280;32866;50.160;14.768;2023-02-17T09:35:16;99769.97;;;8.13;100.00
46876;BME280;32866;50.160;14.768;2023-02-17T09:37:42;99778.53;;;8.15;100.00
46876;BME280;32866;50.160;14.768;2023-02-17T09:40:16;99773.19;;;8.04;100.00
46876;BME280;32866;50.160;14.768;2023-02-17T09:42:42;99773.25;;;8.01;100.00
46876;BME280;32866;50.160;14.768;2023-02-17T09:45:11;99782.66;;;7.96;100.00
46876;BME280;32866;50.160;14.768;2023-02-17T09:47:51;99785.53;;;7.85;100.00
46876;BME280;32866;50.160;14.768;2023-02-17T09:50:21;99787.50;;;7.85;100.00
46876;BME280;32866;50.160;14.768;2023-02-17T09:52:57;99769.69;;;7.76;100.00
46876;BME280;32866;50.160;14.768;2023-02-17T09:55:28;99794.66;;;7.75;100.00
46876;BME280;32866;50.160;14.768;2023-02-17T09:58:05;99779.03;;;7.75;100.00
46876;BME280;32866;50.160;14.768;2023-02-17T10:00:38;99745.91;;;7.46;100.00
46876;BME280;32866;50.160;14.768;2023-02-17T10:03:15;99760.16;;;7.57;100.00
46876;BME280;32866;50.160;14.768;2023-02-17T10:13:51;99738.44;;;7.50;100.00
46876;BME280;32866;50.160;14.768;2023-02-17T10:16:22;99759.72;;;7.63;100.00
46876;BME280;32866;50.160;14.768;2023-02-17T10:18:56;99764.69;;;7.71;100.00
46876;BME280;32866;50.160;14.768;2023-02-17T10:21:29;99750.94;;;7.78;100.00
46876;BME280;32866;50.160;14.768;2023-02-17T10:23:55;99726.25;;;7.58;100.00
46876;BME280;32866;50.160;14.768;2023-02-17T10:26:36;99753.56;;;7.86;100.00
46876;BME280;32866;50.160;14.768;2023-02-17T10:35:14;99732.03;;;7.95;100.00
46876;BME280;32866;50.160;14.768;2023-02-17T10:37:48;99725.34;;;7.96;100.00
46876;BME280;32866;50.160;14.768;2023-02-17T10:40:19;99719.47;;;8.01;100.00
46876;BME280;32866;50.160;14.768;2023-02-17T10:42:47;99691.56;;;7.90;100.00
46876;BME280;32866;50.160;14.768;2023-02-17T10:45:34;99709.97;;;8.09;100.00
46876;BME280;32866;50.160;14.768;2023-02-17T10:48:08;99707.63;;;8.11;100.00
46876;BME280;32866;50.160;14.768;2023-02-17T10:50:37;99684.34;;;8.03;100.00
46876;BME280;32866;50.160;14.768;2023-02-17T10:53:16;99704.41;;;8.16;100.00
46876;BME280;32866;50.160;14.768;2023-02-17T10:56:07;99704.56;;;8.33;100.00
46876;BME280;32866;50.160;14.768;2023-02-17T11:01:17;99696.19;;;8.44;100.00
46876;BME280;32866;50.160;14.768;2023-02-17T11:03:43;99687.47;;;8.52;100.00
46876;BME280;32866;50.160;14.768;2023-02-17T11:06:20;99684.56;;;8.63;100.00
46876;BME280;32866;50.160;14.768;2023-02-17T11:09:24;99671.25;;;8.65;100.00
46876;BME280;32866;50.160;14.768;2023-02-17T11:14:31;99631.66;;;8.53;100.00
46876;BME280;32866;50.160;14.768;2023-02-17T11:17:02;99663.78;;;8.89;100.00
46876;BME280;32866;50.160;14.768;2023-02-17T11:19:29;99657.22;;;9.07;100.00
46876;BME280;32866;50.160;14.768;2023-02-17T11:21:57;99657.47;;;9.13;100.00
46876;BME280;32866;50.160;14.768;2023-02-17T11:24:24;99640.16;;;9.19;100.00
46876;BME280;32866;50.160;14.768;2023-02-17T11:29:21;99638.47;;;9.25;100.00
46876;BME280;32866;50.160;14.768;2023-02-17T11:32:02;99623.38;;;9.37;100.00
46876;BME280;32866;50.160;14.768;2023-02-17T11:34:33;99601.88;;;9.19;100.00
46876;BME280;32866;50.160;14.768;2023-02-17T11:39:48;99632.69;;;9.40;100.00
46876;BME280;32866;50.160;14.768;2023-02-17T11:44:50;99614.38;;;9.20;100.00
46876;BME280;32866;50.160;14.768;2023-02-17T11:50:00;99608.63;;;9.15;100.00
46876;BME280;32866;50.160;14.768;2023-02-17T11:52:52;99599.81;;;9.07;100.00
46876;BME280;32866;50.160;14.768;2023-02-17T11:55:49;99587.06;;;8.80;100.00
46876;BME280;32866;50.160;14.768;2023-02-17T12:09:54;99571.09;;;9.35;100.00
46876;BME280;32866;50.160;14.768;2023-02-17T12:12:38;99582.69;;;9.39;100.00
46876;BME280;32866;50.160;14.768;2023-02-17T12:26:41;99535.06;;;9.20;100.00
46876;BME280;32866;50.160;14.768;2023-02-17T12:29:11;99557.31;;;9.39;100.00
46876;BME280;32866;50.160;14.768;2023-02-17T12:34:43;99552.94;;;9.41;100.00
46876;BME280;32866;50.160;14.768;2023-02-17T12:37:26;99560.56;;;9.50;100.00
46876;BME280;32866;50.160;14.768;2023-02-17T12:39:56;99544.09;;;9.54;100.00
46876;BME280;32866;50.160;14.768;2023-02-17T12:42:34;99546.97;;;9.63;100.00
46876;BME280;32866;50.160;14.768;2023-02-17T12:45:04;99538.09;;;9.59;100.00
46876;BME280;32866;50.160;14.768;2023-02-17T12:47:38;99527.06;;;9.62;100.00
46876;BME280;32866;50.160;14.768;2023-02-17T12:50:18;99531.00;;;9.61;100.00
46876;BME280;32866;50.160;14.768;2023-02-17T12:52:47;99523.63;;;9.58;100.00
46876;BME280;32866;50.160;14.768;2023-02-17T12:55:19;99533.72;;;9.61;100.00
46876;BME280;32866;50.160;14.768;2023-02-17T12:57:58;99528.97;;;9.65;100.00
46876;BME280;32866;50.160;14.768;2023-02-17T13:03:45;99508.50;;;9.70;100.00
46876;BME280;32866;50.160;14.768;2023-02-17T13:09:27;99509.41;;;9.96;100.00
46876;BME280;32866;50.160;14.768;2023-02-17T13:12:09;99506.00;;;9.92;100.00
46876;BME280;32866;50.160;14.768;2023-02-17T13:14:43;99503.53;;;9.81;100.00
46876;BME280;32866;50.160;14.768;2023-02-17T13:22:40;99514.56;;;9.45;100.00
46876;BME280;32866;50.160;14.768;2023-02-17T13:25:10;99485.34;;;9.25;100.00
46876;BME280;32866;50.160;14.768;2023-02-17T13:27:38;99504.13;;;9.07;100.00
46876;BME280;32866;50.160;14.768;2023-02-17T13:32:35;99489.38;;;8.84;100.00
46876;BME280;32866;50.160;14.768;2023-02-17T13:35:29;99492.41;;;8.90;100.00
46876;BME280;32866;50.160;14.768;2023-02-17T13:37:55;99496.47;;;8.82;100.00
46876;BME280;32866;50.160;14.768;2023-02-17T13:42:48;99451.44;;;8.70;100.00
46876;BME280;32866;50.160;14.768;2023-02-17T13:47:57;99480.47;;;9.00;100.00
46876;BME280;32866;50.160;14.768;2023-02-17T13:50:35;99470.28;;;9.01;100.00
46876;BME280;32866;50.160;14.768;2023-02-17T13:53:02;99474.06;;;9.07;100.00
46876;BME280;32866;50.160;14.768;2023-02-17T13:55:30;99469.28;;;9.11;100.00
46876;BME280;32866;50.160;14.768;2023-02-17T13:57:57;99475.09;;;9.29;100.00
46876;BME280;32866;50.160;14.768;2023-02-17T14:00:26;99463.91;;;9.40;100.00
46876;BME280;32866;50.160;14.768;2023-02-17T14:02:55;99453.81;;;9.54;100.00
46876;BME280;32866;50.160;14.768;2023-02-17T14:05:41;99431.06;;;9.57;100.00
46876;BME280;32866;50.160;14.768;2023-02-17T14:08:31;99447.88;;;9.72;100.00
46876;BME280;32866;50.160;14.768;2023-02-17T14:11:05;99432.56;;;9.74;100.00
46876;BME280;32866;50.160;14.768;2023-02-17T14:13:33;99419.91;;;9.80;100.00
46876;BME280;32866;50.160;14.768;2023-02-17T14:15:59;99401.22;;;9.62;100.00
46876;BME280;32866;50.160;14.768;2023-02-17T14:18:38;99403.09;;;9.65;100.00
46876;BME280;32866;50.160;14.768;2023-02-17T14:21:22;99427.59;;;9.86;100.00
46876;BME280;32866;50.160;14.768;2023-02-17T14:23:50;99418.94;;;9.87;100.00
46876;BME280;32866;50.160;14.768;2023-02-17T14:26:38;99423.47;;;9.94;100.00